Terminal Aerodrome Forecast
Issued by NWS Norman, OK

Home | Current Version | Previous Version | Text Only | Print | Product List | Glossary On
Versions: 1 2 3 4 5 6 7 8 9 10 11 12 13 14 15 16 17 18 19 20 21 22 23 24 25 26 27 28 29 30 31 32 33 34 35 36 37 38
000
FTUS44 KOUN 292331
TAFOKC
TAF
KOKC 292331Z 3000/3024 VRB03KT P6SM SCT025 OVC200
      TEMPO 3002/3006 BKN025
     FM300600 09003KT P6SM OVC015 PROB30 3009/3011 3SM -TSRA
      OVC015CB
     FM302000 35012KT P6SM BKN040=

USA.gov is the U.S. government's official web portal to all federal, state and local government web resources and services.